Marcos Braga

Scout - Internacional
16 Sep 2027
Thursday
Process

Personality

Adaptability (4) Ambition (6) Controversy (6) Loyalty (2) Pressure (2) Professionalism (1) Sportsmanship (8) Temperament (16)

Profile

Coaching Style Democratic
License National A
Determination 9
Man Management 10
Motivating 7
Discipline 10
Job Satisfaction
100%
Fatigue
0%
Role Scout
Wage 60.6K p/w
Contract 14.03.2029

Performance

Behaviour Good
Training Effectiveness
48%
Player Development
70%
Injury Prevention
75%
Tactical Implementation
50%

Recent Events

Attended a recruitment meeting 14d ago
Attended a recruitment meeting 21d ago
Attended a recruitment meeting 28d ago
Attended a recruitment meeting 35d ago
Attended a recruitment meeting 42d ago
Attended a recruitment meeting 49d ago
Attended a recruitment meeting 56d ago
Attended a recruitment meeting 56d ago

Currently Monitoring

188
Player Club Status Ability Confidence Watched Last Observed Latest Vote
Mateusinho Vitória Active 127 / 106 55% 1 01.06.2027 -
Gonzalo Fulham Active 139 / 133 40% 3 31.05.2027 -
Assane Diao Como Active 152 / 156 40% 2 31.05.2027 -
Yeremy Pino Crystal Palace Active 160 / 139 40% 3 30.05.2027 Monitor
Azor Matusiwa Ipswich Town Active 154 / 134 40% 3 27.05.2027 -
Guille Rosas Gijón Active 146 / 141 40% 1 27.05.2027 -
Savinho Tottenham Active 163 / 170 40% 2 26.05.2027 -
Nobel Mendy Hull City Active 144 / 138 40% 2 24.05.2027 -
Mile Svilar AS Roma Active 164 / 171 40% 1 23.05.2027 -
Fabrizio Correa Juventud Active 125 / 126 40% 1 23.05.2027 -
Ben Nelson Leicester City Active 144 / 120 40% 1 22.05.2027 -
Boubacar Kamara Aston Villa Active 164 / 163 40% 2 21.05.2027 -
Aune Heggebø West Bromwich Albion Active 139 / 134 40% 3 20.05.2027 -
Emanuel Emegha Chelsea Active 127 / 135 40% 2 20.05.2027 -
Lorenzo Colombo Genoa Active 146 / 124 40% 2 18.05.2027 -
Alex Scott Bournemouth Active 165 / 162 40% 2 18.05.2027 -
Noni Madueke Arsenal Active 171 / 151 40% 1 18.05.2027 -
Samu Aghehowa Nottingham Forest Active 139 / 142 40% 1 18.05.2027 -
Malick Fofana Sunderland Active 153 / 149 40% 1 18.05.2027 -
Nicolas Jackson Aston Villa Active 162 / 149 40% 2 16.05.2027 Needs More Info
Joe Gelhardt Hull City Active 129 / 146 40% 1 16.05.2027 -
Gonçalo Ramos AC Milan Active 140 / 141 40% 1 14.05.2027 -
Jason Knight Bristol City Active 137 / 115 40% 1 13.05.2027 -
Pedro Porro Tottenham Active 157 / 139 40% 2 08.05.2027 Needs More Info
Tino Livramento Newcastle United Active 147 / 146 40% 3 05.05.2027 -
Léo Scienza Southampton Active 132 / 147 40% 1 05.05.2027 -
Amadou Onana Aston Villa Active 162 / 166 40% 1 05.05.2027 -
Issa Kaboré Wrexham Active 132 / 136 40% 1 05.05.2027 -
Oliver Dovin Coventry City Active 125 / 138 40% 2 04.05.2027 -
Mohamed-Ali Cho Hull City Active 136 / 131 40% 2 03.05.2027 -
Sam Bell Bristol City Active 107 / 133 40% 1 03.05.2027 -
Georginio Rutter Brighton Active 140 / 161 40% 1 01.05.2027 -
Diego Romero Universitario Active 115 / 132 40% 1 30.04.2027 -
Adam Wharton Crystal Palace Active 139 / 164 40% 2 29.04.2027 -
Thiago Brentford Active 130 / 145 40% 1 28.04.2027 Needs More Info
João Pedro Chelsea Active 158 / 164 40% 1 28.04.2027 -
André-Franck Zambo Anguissa Napoli Active 157 / 151 40% 3 24.04.2027 -
James Garner Everton Active 146 / 164 40% 1 24.04.2027 -
Kyle Walker-Peters West Ham United Active 133 / 139 40% 1 22.04.2027 -
Olivier Boscagli Brighton Active 157 / 149 40% 1 21.04.2027 -
Moisés Caicedo Chelsea Active 166 / 169 40% 1 21.04.2027 -
Sławomir Abramowicz Jagiellonia Active 125 / 123 40% 2 20.04.2027 -
Manor Solomon West Ham United Active 139 / 143 40% 1 18.04.2027 -
Fran Vieites Walsall Active 108 / 109 40% 2 15.04.2027 -
Deniz Ertaş Konyaspor Active 140 / 132 40% 1 15.04.2027 -
Lucas Lund Viborg Active 135 / 122 40% 1 14.04.2027 -
Matthew Targett Hull City Active 139 / 115 40% 2 13.04.2027 -
Luke McNally Bristol City Active 131 / 144 40% 1 13.04.2027 -
Jack Rudoni Coventry City Active 142 / 123 40% 3 12.04.2027 -
Jackson Muleka Konyaspor Active 134 / 133 40% 2 12.04.2027 -
Sam Greenwood Bristol City Active 110 / 115 40% 2 08.04.2027 -
Milan van Ewijk Coventry City Active 137 / 119 40% 1 08.04.2027 -
Franco Israel Torino Active 124 / 134 40% 1 06.04.2027 -
Zion Suzuki Aston Villa Active 159 / 141 40% 3 05.04.2027 -
Florentino Luís Ipswich Town Active 136 / 127 40% 1 05.04.2027 -
Diego Gómez Brighton Active 149 / 138 40% 1 05.04.2027 -
Dara O'Shea Ipswich Town Active 126 / 135 40% 3 03.04.2027 -
Christopher Opéri Basaksehir Active 119 / 129 40% 1 03.04.2027 -
Richard Koné Queens Park Rangers Active 117 / 119 40% 1 02.04.2027 -
Ilyas Ansah Hull City Active 144 / 120 40% 1 02.04.2027 -
Stiven Shpendi Empoli Active 112 / 109 40% 1 01.04.2027 -
Aidan Morris Middlesbrough Active 145 / 123 40% 1 31.03.2027 -
Félix Lemaréchal Club Brugge Active 145 / 130 40% 2 30.03.2027 -
Ivo Mammini Beitar Jerusalem Active 110 / 126 40% 1 30.03.2027 -
Willem Geubbels Lecce Active 127 / 114 40% 1 30.03.2027 -
Harry Clarke Preston Active 117 / 135 40% 2 29.03.2027 -
Ollie Scarles West Ham United Active 123 / 138 40% 1 29.03.2027 -
Habib Diarra Sunderland Active 154 / 150 40% 1 28.03.2027 -
Raúl Rangel Braga Active 124 / 129 40% 2 25.03.2027 -
Henrique Araújo Casa Pia Active 115 / 125 40% 2 24.03.2027 -
Cezary Miszta Rio Ave Active 141 / 134 40% 2 20.03.2027 -
Brooke Norton-Cuffy Hull City Active 122 / 136 40% 2 20.03.2027 -
Mads Hedenstad AGF Active 120 / 124 40% 1 20.03.2027 -
Robin Roefs Sunderland Active 154 / 131 40% 6 18.03.2027 -
Gabriel Brazão Santos Active 135 / 140 40% 2 17.03.2027 -
Zeno Debast Sporting CP Active 138 / 149 40% 2 16.03.2027 -
Adam Randell Bristol City Active 132 / 126 40% 2 15.03.2027 -
Denis Huseinbašić Braga Active 118 / 143 40% 1 15.03.2027 -
Pablo Rosario Porto Active 153 / 127 40% 3 14.03.2027 -
Jacques Ekomié Wrexham Active 122 / 136 40% 1 14.03.2027 -
Leon Goretzka Aston Villa Active 160 / 163 40% 5 13.03.2027 -
Gustavo Silva Vitoria Guimaraes Active 115 / 128 40% 2 13.03.2027 -
Vinícius Lopes Santa Clara Active 130 / 131 40% 1 13.03.2027 -
Max Johnston Derby County Active 129 / 135 40% 1 11.03.2027 -
Justo Giani Umraniyespor Active 105 / 128 40% 1 11.03.2027 -
Yousef Salech Cardiff City Active 141 / 137 40% 1 11.03.2027 -
Maduka Okoye Udinese Active 128 / 131 40% 2 10.03.2027 -
Sorriso Famalicao Active 147 / 128 40% 1 08.03.2027 -
Gustavo Hamer Sheffield United Active 118 / 140 40% 1 06.03.2027 -
Mads Hermansen West Ham United Active 150 / 123 40% 5 05.03.2027 -
Josh Keeley Luton Town Active 129 / 127 40% 3 05.03.2027 -
Sikou Niakaté Braga Active 141 / 150 40% 1 05.03.2027 -
Sergi Altimira Sporting CP Active 152 / 145 40% 2 03.03.2027 -
Elia Caprile Cagliari Active 140 / 135 40% 2 01.03.2027 -
Andreas Jungdal Westerlo Active 109 / 109 40% 1 01.03.2027 -
Patrick Agyemang Derby County Active 122 / 131 40% 1 28.02.2027 -
Rodrigo Pinheiro Famalicao Active 137 / 130 40% 1 22.02.2027 -
Jeremy Márquez Cruz Azul Active 138 / 139 40% 1 22.02.2027 -
Mathias De Amorim Famalicao Active 118 / 147 40% 4 20.02.2027 -
Figueiredo Alverca Active 142 / 113 40% 2 19.02.2027 -
Roberto Fernández Braga Active 141 / 127 40% 1 19.02.2027 -
Dinis Pinto Moreirense Active 120 / 116 40% 3 17.02.2027 -
Marquinhos Spartak Moscow Active 113 / 115 40% 1 17.02.2027 -
Tyrese Campbell Sheffield United Active 132 / 133 40% 1 15.02.2027 -
Tamble Monteiro Rio Ave Active 112 / 132 40% 1 13.02.2027 -
Jan Bednarek Porto Active 146 / 143 40% 3 12.02.2027 -
Filip Kubala Banik Ostrava Active 125 / 136 40% 1 11.02.2027 -
Duk Atlas Active 112 / 105 40% 1 11.02.2027 -
Rhian Brewster Oleksandriya Active 125 / 136 40% 1 10.02.2027 -
Nicolò Tresoldi Club Brugge Active 136 / 124 40% 1 10.02.2027 -
Mohammad Hosseini Malavan Active 102 / 136 40% 1 08.02.2027 -
Martín Tejón Maritimo Active 104 / 119 40% 2 05.02.2027 -
Grégoire Coudert Burnley Active 128 / 138 40% 5 04.02.2027 -
Gabriel Silva Braga Active 116 / 113 40% 3 03.02.2027 -
Alfonso Trezza Arouca Active 120 / 138 40% 1 03.02.2027 -
Enzo Barrenechea Benfica Active 157 / 136 40% 3 31.01.2027 -
Luís Esteves Atlas Active 141 / 130 40% 1 31.01.2027 -
Radek Vítek Middlesbrough Active 129 / 127 40% 3 29.01.2027 -
Jordan Holsgrove Estoril Praia Active 143 / 114 40% 1 28.01.2027 -
Matheus Bidu Corinthians Active 138 / 124 40% 2 26.01.2027 -
André Wolverhampton Active 144 / 132 40% 1 26.01.2027 -
Rubén Duarte Pumas UNAM Active 116 / 129 40% 1 19.01.2027 -
Caio Alexandre Bahia Active 144 / 146 40% 1 13.01.2027 -
Hidemasa Morita Hull City Active 144 / 156 40% 1 13.01.2027 -
Lazar Carević Famalicao Active 114 / 133 40% 2 11.01.2027 -
Luciano Juba Bahia Active 133 / 122 40% 2 10.01.2027 -
Lucas Paquetá Flamengo Active 133 / 143 40% 1 08.01.2027 -
James Trafford Leeds United Active 152 / 134 40% 3 29.12.2026 -
Lukas Jensen Millwall Active 117 / 131 40% 1 23.12.2026 -
Anthony Patterson Wrexham Active 112 / 126 40% 2 14.12.2026 -
Bright Arrey-Mbi Braga Active 118 / 123 40% 2 30.11.2026 -
Soma Anzai FC Tokyo Active 117 / 108 40% 2 28.11.2026 -
Lorougnon Gohi Académico de Viseu Active 102 / 128 40% 3 26.11.2026 -
Adriel Torreense Active 116 / 125 40% 2 25.11.2026 -
Tomás Araújo Benfica Active 138 / 159 40% 1 23.11.2026 -
Samuel Soares Benfica Active 138 / 139 40% 2 21.11.2026 -
Robin Risser RC Lens Active 126 / 143 40% 1 16.11.2026 -
Mario Dorgeles Braga Active 121 / 145 40% 6 14.11.2026 -
Taichi Fukui Arouca Active 124 / 118 40% 1 14.11.2026 -
Ramón Juárez Club America Active 123 / 125 40% 1 12.11.2026 -
Tunde AVS Active 101 / 108 40% 1 11.11.2026 -
Joe Hodge Tondela Active 133 / 120 40% 1 11.11.2026 -
Giorgos Koutsias Famalicao Active 110 / 120 40% 1 08.11.2026 -
Carlos Forbs Club Brugge Active 148 / 133 40% 1 08.11.2026 -
Hugo Souza Corinthians Active 126 / 136 40% 4 05.11.2026 -
Erik Lira Cruz Azul Active 120 / 138 40% 1 03.11.2026 -
Ianis Stoica Estrela da Amadora Active 99 / 120 40% 1 02.11.2026 -
Matheus Dias Nacional Active 117 / 124 40% 1 02.11.2026 -
Daniel Júnior Nacional Active 99 / 98 40% 3 31.10.2026 -
Manu Pozo Torreense Active 110 / 131 40% 4 30.10.2026 -
Bernardo Fontes Braga Active 126 / 129 40% 1 30.10.2026 -
Mateja Stjepanović Moreirense Active 126 / 123 40% 1 30.10.2026 -
Tiago Ribeiro Oliveirense Active 108 / 111 40% 1 29.10.2026 -
Brenner Santa Clara Active 101 / 123 40% 1 29.10.2026 -
Cristian Medina Botafogo Active 117 / 140 40% 1 27.10.2026 -
Alan Varela Porto Active 143 / 134 40% 1 26.10.2026 -
Mauro Silveira Junior Active 128 / 107 40% 1 24.10.2026 -
Caoimhin Kelleher Brentford Active 164 / 135 40% 1 23.10.2026 -
Alejandro Piedrahita Deportivo Pereira Active 134 / 131 40% 1 20.10.2026 -
Francisco Domingues Moreirense Active 122 / 113 40% 1 19.10.2026 -
Anatolii Trubin Feyenoord Active 147 / 157 40% 1 15.10.2026 -
William Cruzeiro Active 127 / 137 40% 1 15.10.2026 -
Jean-Baptiste Gorby Braga Active 149 / 120 40% 1 13.10.2026 -
Brian Gutiérrez Guadalajara Active 143 / 145 40% 1 11.10.2026 -
Luis Romo Guadalajara Active 154 / 150 40% 1 11.10.2026 -
Andrés Gómez Vasco da Gama Active 136 / 144 40% 1 08.10.2026 -
Alberto Costa Porto Active 141 / 131 40% 5 07.10.2026 -
Lucão Gil Vicente Active 128 / 110 40% 1 07.10.2026 -
Pau Víctor Braga Active 149 / 126 40% 3 04.10.2026 -
Lewis Cook Bournemouth Active 165 / 131 40% 1 01.10.2026 -
Luis Quintero Torreense Active 128 / 132 40% 1 28.09.2026 -
Alan Lescano Argentinos Juniors Active 128 / 121 40% 1 28.09.2026 -
Michael Cooper Sheffield United Active 142 / 130 40% 1 27.09.2026 -
Guilherme Arana Fluminense Active 141 / 146 40% 2 25.09.2026 -
Léo Ortiz Flamengo Active 149 / 138 40% 1 25.09.2026 -
Juan Sierra La Equidad Active 125 / 132 40% 1 24.09.2026 -
Rico Henry River Plate Active 140 / 142 40% 1 23.09.2026 -
Danilo Botafogo Active 149 / 132 40% 1 23.09.2026 -
Samuel Dahl Benfica Active 132 / 139 40% 3 22.09.2026 -
Lee Hyun-Ju Arouca Active 134 / 110 40% 1 19.09.2026 -
Renan Lodi Atlético Mineiro Active 147 / 125 40% 1 08.09.2026 -
Korede Osundina Casa Pia Active 127 / 104 40% 1 07.09.2026 -
Carlos Álvarez Club America Active 150 / 138 40% 1 27.08.2026 -
Gianluca Prestianni Benfica Active 138 / 145 40% 2 23.08.2026 -
Arthur Flamengo Active 144 / 142 40% 1 22.08.2026 -
Ricardo Horta Braga Active 152 / 162 40% 1 17.08.2026 -
Heorhii Sudakov Benfica Active 155 / 143 40% 1 11.08.2026 -
Eduardo Quaresma Sporting CP Active 141 / 149 40% 1 02.08.2026 -